Time;durP1;ratioP1;P1;durP2;ratioP2;P2;SDS_P1;SDS_P2;PMS_P1;PMS_P2;Temp;Humidity;BMP_temperature;BMP_pressure;BME280_temperature;BME280_humidity;BME280_pressure;Samples;Min_cycle;Max_cycle;Signal;HPM_P1;HPM_P2
2022/10/22 00:00:39;;;;;;;2.17;0.55;;;15.80;99.90;;;;;;5094862;28;20052;-80
2022/10/22 00:03:04;;;;;;;0.80;0.50;;;15.70;99.90;;;;;;5094665;28;20119;-80
2022/10/22 00:05:30;;;;;;;3.63;0.80;;;15.70;99.90;;;;;;5095042;28;20115;-78
2022/10/22 00:07:55;;;;;;;1.67;0.50;;;15.70;99.90;;;;;;5094731;28;20426;-77
2022/10/22 00:10:21;;;;;;;5.57;1.50;;;15.60;99.90;;;;;;5094606;28;20020;-77
2022/10/22 00:12:46;;;;;;;5.10;0.90;;;15.60;99.90;;;;;;5094681;28;20031;-77
2022/10/22 00:15:12;;;;;;;2.05;0.43;;;15.60;99.90;;;;;;5094801;28;20074;-79
2022/10/22 00:17:38;;;;;;;0.70;0.22;;;15.60;99.90;;;;;;5094940;28;20112;-78
2022/10/22 00:20:04;;;;;;;4.78;0.80;;;15.60;99.90;;;;;;5094014;28;20032;-77
2022/10/22 00:22:30;;;;;;;2.75;0.28;;;15.60;99.90;;;;;;5094211;28;20452;-76
2022/10/22 00:24:56;;;;;;;0.65;0.20;;;15.60;99.90;;;;;;5111991;28;20020;-77
2022/10/22 00:27:21;;;;;;;0.52;0.32;;;15.60;99.90;;;;;;5093850;28;20401;-77
2022/10/22 00:29:47;;;;;;;0.20;0.13;;;15.60;99.90;;;;;;5112445;28;20028;-76
2022/10/22 00:32:12;;;;;;;1.95;0.30;;;15.50;99.90;;;;;;5093534;28;20110;-76
2022/10/22 00:34:38;;;;;;;0.35;0.35;;;15.60;99.90;;;;;;5094133;28;20028;-76
2022/10/22 00:37:04;;;;;;;3.47;0.35;;;15.50;99.90;;;;;;5093255;28;20056;-77
2022/10/22 00:39:30;;;;;;;2.13;0.90;;;15.50;99.90;;;;;;5112553;28;20073;-77
2022/10/22 00:41:57;;;;;;;2.20;0.20;;;15.50;99.90;;;;;;5093904;28;20046;-76
2022/10/22 00:45:20;;;;;;;1.42;0.10;;;15.50;99.90;;;;;;5112174;28;20414;-75
2022/10/22 00:48:03;;;;;;;2.03;0.17;;;15.50;99.90;;;;;;5015204;28;20022;-76
2022/10/22 00:50:36;;;;;;;1.30;0.10;;;15.50;99.90;;;;;;5026571;28;20030;-76
2022/10/22 00:53:05;;;;;;;1.08;0.10;;;15.50;99.90;;;;;;5012546;28;20112;-76
2022/10/22 00:55:32;;;;;;;1.27;0.20;;;15.50;99.90;;;;;;5029761;28;20033;-78
2022/10/22 00:57:58;;;;;;;0.10;0.00;;;15.50;99.90;;;;;;5029799;28;20120;-78
2022/10/22 01:00:24;;;;;;;1.08;0.20;;;15.50;99.90;;;;;;5029236;28;20044;-77
2022/10/22 01:02:52;;;;;;;0.22;0.10;;;15.50;99.90;;;;;;5011191;28;20494;-75
2022/10/22 01:05:18;;;;;;;0.20;0.10;;;15.50;99.90;;;;;;5009974;28;20614;-76
2022/10/22 01:07:47;;;;;;;2.30;0.30;;;15.50;99.90;;;;;;5013085;28;20034;-76
2022/10/22 01:10:24;;;;;;;0.28;0.10;;;15.50;99.90;;;;;;4996348;28;20026;-76
2022/10/22 01:13:10;;;;;;;0.13;0.10;;;15.50;99.90;;;;;;4997158;28;20068;-76
2022/10/22 01:15:50;;;;;;;0.35;0.20;;;15.50;99.90;;;;;;5007788;28;20033;-75
2022/10/22 01:18:37;;;;;;;0.68;0.20;;;15.50;99.90;;;;;;5043725;28;20499;-75
2022/10/22 01:21:07;;;;;;;1.75;0.32;;;15.50;99.90;;;;;;5109409;28;20020;-75
2022/10/22 01:24:19;;;;;;;3.47;1.23;;;15.50;99.90;;;;;;5077256;28;20020;-75
2022/10/22 01:27:14;;;;;;;1.38;0.63;;;15.50;99.90;;;;;;5095299;28;20036;-74
2022/10/22 01:29:50;;;;;;;1.05;0.30;;;15.50;99.90;;;;;;5077607;28;20038;-76
2022/10/22 01:32:21;;;;;;;1.50;0.20;;;15.50;99.90;;;;;;5076455;28;20024;-76
2022/10/22 01:34:52;;;;;;;1.10;0.20;;;15.50;99.90;;;;;;5095388;28;20031;-75
2022/10/22 01:37:22;;;;;;;0.13;0.10;;;15.50;99.90;;;;;;5076400;28;20036;-75
2022/10/22 01:39:49;;;;;;;1.27;0.22;;;15.50;99.90;;;;;;5095481;28;20042;-75
2022/10/22 01:42:15;;;;;;;0.25;0.17;;;15.50;99.90;;;;;;5076394;28;20046;-75
2022/10/22 01:44:41;;;;;;;0.30;0.10;;;15.50;99.90;;;;;;5076829;28;20558;-75
2022/10/22 01:47:28;;;;;;;0.10;0.10;;;15.50;99.90;;;;;;5076448;28;20032;-75
2022/10/22 01:50:17;;;;;;;0.30;0.10;;;15.40;99.90;;;;;;5077226;28;20025;-75
2022/10/22 01:53:16;;;;;;;0.32;0.10;;;15.40;99.90;;;;;;5077345;28;20020;-75
2022/10/22 01:55:55;;;;;;;0.80;0.40;;;15.30;99.90;;;;;;5095235;28;20020;-75
2022/10/22 01:58:54;;;;;;;0.43;0.20;;;15.30;99.90;;;;;;5076207;28;20667;-75
2022/10/22 02:01:47;;;;;;;1.45;0.30;;;15.20;99.90;;;;;;5076185;28;20240;-75
2022/10/22 02:04:15;;;;;;;0.98;0.25;;;15.20;99.90;;;;;;5094033;28;20028;-75
2022/10/22 02:06:43;;;;;;;0.73;0.30;;;15.20;99.90;;;;;;5094538;28;20028;-75
2022/10/22 02:09:10;;;;;;;1.60;0.25;;;15.20;99.90;;;;;;5075786;28;20078;-75
2022/10/22 02:11:36;;;;;;;0.63;0.30;;;15.20;99.90;;;;;;5094794;28;20028;-75
2022/10/22 02:14:04;;;;;;;0.95;0.45;;;15.20;99.90;;;;;;5094084;28;20035;-76
2022/10/22 02:16:35;;;;;;;2.15;0.20;;;15.20;99.90;;;;;;5075706;28;20036;-76
2022/10/22 02:19:06;;;;;;;1.20;0.20;;;15.10;99.90;;;;;;5076026;28;20032;-76
2022/10/22 02:21:32;;;;;;;2.30;0.20;;;15.10;99.90;;;;;;5076391;28;20023;-76
2022/10/22 02:23:58;;;;;;;3.00;0.30;;;15.10;99.90;;;;;;5076321;28;20082;-75
2022/10/22 02:27:10;;;;;;;1.50;0.30;;;15.10;99.90;;;;;;5075455;28;20028;-75
2022/10/22 02:29:48;;;;;;;1.77;1.20;;;15.10;99.90;;;;;;5032540;28;20056;-75
2022/10/22 02:32:20;;;;;;;1.38;0.60;;;15.00;99.90;;;;;;5073254;28;20112;-76
2022/10/22 02:34:47;;;;;;;1.30;0.35;;;15.00;99.90;;;;;;5074125;28;20036;-75
2022/10/22 02:37:15;;;;;;;1.42;0.38;;;15.00;99.90;;;;;;5054663;28;20033;-76
2022/10/22 02:39:41;;;;;;;0.38;0.20;;;15.00;99.90;;;;;;5055923;28;20123;-76
2022/10/22 02:42:08;;;;;;;0.47;0.30;;;15.00;99.90;;;;;;5055224;28;20123;-76
2022/10/22 02:44:33;;;;;;;1.55;0.20;;;14.90;99.90;;;;;;5073821;28;20029;-76
2022/10/22 02:46:59;;;;;;;1.05;0.20;;;14.90;99.90;;;;;;5055878;28;20032;-76
2022/10/22 02:49:25;;;;;;;1.63;0.28;;;14.90;99.90;;;;;;5055082;28;20104;-76
2022/10/22 02:51:50;;;;;;;2.42;0.20;;;14.90;99.90;;;;;;5055464;28;20024;-75
2022/10/22 02:54:16;;;;;;;0.82;0.20;;;14.90;99.90;;;;;;5054882;28;20024;-75
2022/10/22 02:56:41;;;;;;;3.67;0.70;;;14.90;99.90;;;;;;5055678;28;20461;-76
2022/10/22 02:59:07;;;;;;;5.50;0.40;;;14.90;99.90;;;;;;5054972;28;20127;-77
2022/10/22 03:01:32;;;;;;;1.20;0.30;;;14.90;99.90;;;;;;5055532;28;20020;-76
2022/10/22 03:03:58;;;;;;;0.77;0.20;;;14.90;99.90;;;;;;5055720;28;20039;-76
2022/10/22 03:06:23;;;;;;;1.95;0.20;;;14.90;99.90;;;;;;5054903;28;20605;-76
2022/10/22 03:08:49;;;;;;;1.52;0.20;;;14.90;99.90;;;;;;5055449;28;20028;-76
2022/10/22 03:11:15;;;;;;;0.88;0.30;;;14.90;99.90;;;;;;5072519;28;20517;-76
2022/10/22 03:13:40;;;;;;;0.43;0.20;;;14.90;99.90;;;;;;5055456;28;20025;-76
2022/10/22 03:16:06;;;;;;;1.50;0.63;;;14.90;99.90;;;;;;5054968;28;20102;-76
2022/10/22 03:18:31;;;;;;;3.28;0.85;;;14.80;99.90;;;;;;5055275;28;20128;-76
2022/10/22 03:21:09;;;;;;;5.22;0.30;;;14.80;99.90;;;;;;5055175;28;20489;-76
2022/10/22 03:23:37;;;;;;;1.00;0.20;;;14.80;99.90;;;;;;5055278;28;20020;-76
2022/10/22 03:26:03;;;;;;;1.17;0.20;;;14.80;99.90;;;;;;5054982;28;20033;-76
2022/10/22 03:28:28;;;;;;;1.33;0.30;;;14.80;99.90;;;;;;5069766;28;20054;-75
2022/10/22 03:30:54;;;;;;;0.93;0.22;;;14.80;99.90;;;;;;5074702;28;20067;-76
2022/10/22 03:33:19;;;;;;;2.03;0.20;;;14.80;99.90;;;;;;5074169;28;20438;-76
2022/10/22 03:35:46;;;;;;;0.50;0.20;;;14.80;99.90;;;;;;5074895;28;20024;-76
2022/10/22 03:38:12;;;;;;;0.20;0.20;;;14.80;99.90;;;;;;5074117;28;20131;-77
2022/10/22 03:40:40;;;;;;;2.10;0.50;;;14.70;99.90;;;;;;5093062;28;20028;-75
2022/10/22 03:43:05;;;;;;;0.93;0.40;;;14.70;99.90;;;;;;5074150;28;20111;-77
2022/10/22 03:45:31;;;;;;;2.10;0.40;;;14.70;99.90;;;;;;5074208;28;20067;-75
2022/10/22 03:47:56;;;;;;;1.27;0.40;;;14.70;99.90;;;;;;5074728;28;20031;-74
2022/10/22 03:50:22;;;;;;;2.25;0.38;;;14.70;99.90;;;;;;5091742;28;20099;-75
2022/10/22 03:52:48;;;;;;;0.30;0.20;;;14.70;99.90;;;;;;5074441;28;20024;-75
2022/10/22 03:55:13;;;;;;;0.28;0.20;;;14.70;99.90;;;;;;5073791;28;20053;-75
2022/10/22 03:57:39;;;;;;;0.80;0.28;;;14.70;99.90;;;;;;5074545;28;20031;-75
2022/10/22 04:00:06;;;;;;;1.73;0.30;;;14.70;99.90;;;;;;5074517;28;20024;-76
2022/10/22 04:02:31;;;;;;;2.05;0.43;;;14.70;99.90;;;;;;5073894;28;20100;-76
2022/10/22 04:04:57;;;;;;;3.97;0.50;;;14.70;99.90;;;;;;5092526;28;20524;-76
2022/10/22 04:07:22;;;;;;;2.00;0.20;;;14.70;99.90;;;;;;5073799;28;20031;-75
2022/10/22 04:09:48;;;;;;;0.32;0.20;;;14.70;99.90;;;;;;5074621;28;20024;-76
2022/10/22 04:12:13;;;;;;;2.60;0.28;;;14.70;99.90;;;;;;5091843;28;20102;-76
2022/10/22 04:14:39;;;;;;;1.33;0.25;;;14.60;99.90;;;;;;5074317;28;20028;-76
2022/10/22 04:17:05;;;;;;;1.55;0.30;;;14.60;99.90;;;;;;5074208;28;20031;-75
2022/10/22 04:19:30;;;;;;;0.50;0.30;;;14.60;99.90;;;;;;5073748;28;20039;-75
2022/10/22 04:21:59;;;;;;;4.15;0.30;;;14.60;99.90;;;;;;5074409;28;20488;-75
2022/10/22 04:24:25;;;;;;;0.80;0.30;;;14.60;99.90;;;;;;5073448;28;20020;-75
2022/10/22 04:26:53;;;;;;;1.17;0.30;;;14.60;99.90;;;;;;5074115;28;20153;-75
2022/10/22 04:29:19;;;;;;;2.28;0.30;;;14.60;99.90;;;;;;5073491;28;20036;-76
2022/10/22 04:31:45;;;;;;;1.88;0.40;;;14.60;99.90;;;;;;5074306;28;20462;-76
2022/10/22 04:34:10;;;;;;;2.30;0.20;;;14.60;99.90;;;;;;5074013;28;20032;-77
2022/10/22 04:36:36;;;;;;;1.25;0.40;;;14.60;99.90;;;;;;5091877;28;20161;-75
2022/10/22 04:39:03;;;;;;;0.22;0.20;;;14.60;99.90;;;;;;5074164;28;20043;-76
2022/10/22 04:41:31;;;;;;;0.95;0.28;;;14.60;99.90;;;;;;5078113;28;20142;-76
2022/10/22 04:43:58;;;;;;;0.70;0.28;;;14.50;99.90;;;;;;5099085;28;20031;-75
2022/10/22 04:46:26;;;;;;;1.90;0.70;;;14.50;99.90;;;;;;5080014;28;20358;-75
2022/10/22 04:48:52;;;;;;;0.55;0.22;;;14.50;99.90;;;;;;5080710;28;20137;-75
2022/10/22 04:51:19;;;;;;;0.40;0.20;;;14.50;99.90;;;;;;5079929;28;20028;-75
2022/10/22 04:53:45;;;;;;;2.38;0.30;;;14.50;99.90;;;;;;5080740;28;20030;-75
2022/10/22 04:56:11;;;;;;;0.45;0.20;;;14.50;99.90;;;;;;5080198;28;20028;-76
2022/10/22 04:58:37;;;;;;;0.73;0.45;;;14.50;99.90;;;;;;5080227;28;20028;-75
2022/10/22 05:01:18;;;;;;;0.55;0.30;;;14.40;99.90;;;;;;5080602;28;20099;-75
2022/10/22 05:03:44;;;;;;;1.80;0.30;;;14.50;99.90;;;;;;5080689;28;20542;-75
2022/10/22 05:06:11;;;;;;;0.60;0.30;;;14.40;99.90;;;;;;5080176;28;20070;-75
2022/10/22 05:08:36;;;;;;;2.08;0.32;;;14.40;99.90;;;;;;5079926;28;20032;-75
2022/10/22 05:11:16;;;;;;;1.45;0.40;;;14.50;99.90;;;;;;5080418;28;20026;-75
2022/10/22 05:13:42;;;;;;;1.05;0.35;;;14.40;99.90;;;;;;5080539;28;20049;-75
2022/10/22 05:16:09;;;;;;;2.45;0.38;;;14.40;99.90;;;;;;5080293;28;20024;-75
2022/10/22 05:18:36;;;;;;;2.20;0.30;;;14.40;99.90;;;;;;5079615;28;20660;-75
2022/10/22 05:21:03;;;;;;;0.43;0.25;;;14.40;99.90;;;;;;5080297;28;20028;-75
2022/10/22 05:23:29;;;;;;;1.58;0.30;;;14.40;99.90;;;;;;5079580;28;20024;-75
2022/10/22 05:25:54;;;;;;;2.03;0.30;;;14.30;99.90;;;;;;5080432;28;20032;-75
2022/10/22 05:28:20;;;;;;;0.40;0.30;;;14.30;99.90;;;;;;5079243;28;20044;-75
2022/10/22 05:30:55;;;;;;;0.85;0.30;;;14.40;99.90;;;;;;5080414;28;20536;-75
2022/10/22 05:33:23;;;;;;;1.45;0.30;;;14.40;99.90;;;;;;5079582;28;20024;-75
2022/10/22 05:35:49;;;;;;;2.90;0.40;;;14.40;99.90;;;;;;5080182;28;20465;-74
2022/10/22 05:38:15;;;;;;;1.60;0.40;;;14.40;99.90;;;;;;5079900;28;20067;-76
2022/10/22 05:40:41;;;;;;;2.53;0.40;;;14.40;99.90;;;;;;5080380;28;20035;-75
2022/10/22 05:43:06;;;;;;;0.65;0.40;;;14.40;99.90;;;;;;5080257;28;20024;-75
2022/10/22 05:45:39;;;;;;;0.22;0.20;;;14.30;99.90;;;;;;5079474;28;20099;-75
2022/10/22 05:48:06;;;;;;;1.30;0.63;;;14.30;99.90;;;;;;5080158;28;20028;-75
2022/10/22 05:50:36;;;;;;;1.15;0.30;;;14.30;99.90;;;;;;5079540;28;20223;-75
2022/10/22 05:53:02;;;;;;;1.38;0.40;;;14.30;99.90;;;;;;5076769;28;20031;-75
2022/10/22 05:55:28;;;;;;;1.63;0.50;;;14.30;99.90;;;;;;5094710;28;20024;-75
2022/10/22 05:57:53;;;;;;;2.03;0.40;;;14.30;99.90;;;;;;5076898;28;20043;-74
2022/10/22 06:00:19;;;;;;;0.90;0.40;;;14.20;99.90;;;;;;5075991;28;20031;-75
2022/10/22 06:02:49;;;;;;;1.52;0.30;;;14.20;99.90;;;;;;5077156;28;20059;-75
2022/10/22 06:05:14;;;;;;;2.10;0.30;;;14.20;99.90;;;;;;5094510;28;20038;-76
2022/10/22 06:07:40;;;;;;;0.88;0.40;;;14.20;99.90;;;;;;5076249;28;20126;-74
2022/10/22 06:10:13;;;;;;;0.55;0.30;;;14.20;99.90;;;;;;5076639;28;20372;-75
2022/10/22 06:12:39;;;;;;;0.50;0.30;;;14.20;99.90;;;;;;5076524;28;20141;-75
2022/10/22 06:15:05;;;;;;;0.80;0.40;;;14.20;99.90;;;;;;5076227;28;20502;-74
2022/10/22 06:17:31;;;;;;;3.22;0.40;;;14.30;99.90;;;;;;5075832;28;20031;-75
2022/10/22 06:19:56;;;;;;;0.75;0.30;;;14.30;99.90;;;;;;5076706;28;20032;-75
2022/10/22 06:22:22;;;;;;;1.30;0.40;;;14.30;99.90;;;;;;5075921;28;20056;-75
2022/10/22 06:24:47;;;;;;;1.20;0.57;;;14.40;99.90;;;;;;5076475;28;20109;-75
2022/10/22 06:27:13;;;;;;;0.77;0.30;;;14.40;99.90;;;;;;5094214;28;20193;-75
2022/10/22 06:29:38;;;;;;;0.73;0.57;;;14.40;99.90;;;;;;5093622;28;20028;-75
2022/10/22 06:32:04;;;;;;;2.10;0.50;;;14.40;99.90;;;;;;5076413;28;20024;-75
2022/10/22 06:34:30;;;;;;;2.80;0.57;;;14.40;99.90;;;;;;5075512;28;20035;-75
2022/10/22 06:36:55;;;;;;;2.45;0.60;;;14.40;99.90;;;;;;5075747;28;20055;-75
2022/10/22 06:39:21;;;;;;;0.77;0.40;;;14.40;99.90;;;;;;5093208;28;20089;-75
2022/10/22 06:41:46;;;;;;;1.63;0.60;;;14.40;99.90;;;;;;5094516;28;20503;-75
2022/10/22 06:44:14;;;;;;;2.20;0.60;;;14.40;99.90;;;;;;5076071;28;20055;-75
2022/10/22 06:46:40;;;;;;;1.63;0.68;;;14.40;99.90;;;;;;5075362;28;20024;-75
2022/10/22 06:49:06;;;;;;;3.80;1.23;;;14.40;99.90;;;;;;5076007;28;20024;-75
2022/10/22 06:51:31;;;;;;;1.23;0.57;;;14.40;99.90;;;;;;5075372;28;20028;-75
2022/10/22 06:53:58;;;;;;;1.50;1.05;;;14.40;99.90;;;;;;5093852;28;20028;-75
2022/10/22 06:56:25;;;;;;;3.97;0.80;;;14.40;99.90;;;;;;5074728;28;20039;-74
2022/10/22 06:58:53;;;;;;;2.15;0.80;;;14.40;99.90;;;;;;5075787;28;20035;-75
2022/10/22 07:01:21;;;;;;;1.35;0.85;;;14.40;99.90;;;;;;5075388;28;20028;-74
2022/10/22 07:03:50;;;;;;;3.63;1.05;;;14.40;99.90;;;;;;5075341;28;20032;-74
2022/10/22 07:06:16;;;;;;;5.60;2.00;;;14.30;99.90;;;;;;5093914;28;20035;-75
2022/10/22 07:08:42;;;;;;;2.75;1.35;;;14.40;99.90;;;;;;5074891;28;20032;-75
2022/10/22 07:11:16;;;;;;;2.70;1.00;;;14.40;99.90;;;;;;5075633;28;20035;-75
2022/10/22 07:13:42;;;;;;;2.40;1.08;;;14.40;99.90;;;;;;5093124;28;20521;-75
2022/10/22 07:16:09;;;;;;;1.17;0.50;;;14.40;99.90;;;;;;5075487;28;20028;-75
2022/10/22 07:18:36;;;;;;;1.40;0.57;;;14.50;99.90;;;;;;5074768;28;20035;-75
2022/10/22 07:21:04;;;;;;;1.98;0.45;;;14.50;99.90;;;;;;5093616;28;20016;-75
2022/10/22 07:23:30;;;;;;;3.55;0.35;;;14.50;99.90;;;;;;5074324;28;20024;-76
2022/10/22 07:25:55;;;;;;;1.95;0.60;;;14.50;99.90;;;;;;5093457;28;20342;-75
2022/10/22 07:28:21;;;;;;;3.00;0.60;;;14.60;99.90;;;;;;5074387;28;20057;-75
2022/10/22 07:30:48;;;;;;;1.55;0.40;;;14.60;99.90;;;;;;5093209;28;20031;-75
2022/10/22 07:33:14;;;;;;;2.80;1.25;;;14.60;99.90;;;;;;5075045;28;20081;-74
2022/10/22 07:35:40;;;;;;;0.98;0.65;;;14.70;99.90;;;;;;5074031;28;20031;-74
2022/10/22 07:38:07;;;;;;;3.17;0.90;;;14.70;99.90;;;;;;5075022;28;20156;-74
2022/10/22 07:40:34;;;;;;;1.15;0.50;;;14.80;99.90;;;;;;5074381;28;20030;-74
2022/10/22 07:43:00;;;;;;;0.50;0.40;;;14.80;99.90;;;;;;5075019;28;20035;-74
2022/10/22 07:45:26;;;;;;;0.50;0.40;;;14.80;99.90;;;;;;5092134;28;20420;-74
2022/10/22 07:47:51;;;;;;;0.90;0.60;;;14.80;99.90;;;;;;5075082;28;20028;-74
2022/10/22 07:50:17;;;;;;;1.58;0.45;;;14.90;99.90;;;;;;5093134;28;20373;-74
2022/10/22 07:52:43;;;;;;;1.25;0.45;;;14.90;99.90;;;;;;5074129;28;20020;-74
2022/10/22 07:55:09;;;;;;;2.30;0.55;;;14.90;99.90;;;;;;5074783;28;20530;-74
2022/10/22 07:57:36;;;;;;;1.25;0.52;;;14.90;99.90;;;;;;5092071;28;20024;-74
2022/10/22 08:00:07;;;;;;;1.33;0.50;;;14.90;99.90;;;;;;5074570;28;20070;-74
2022/10/22 08:02:33;;;;;;;2.08;0.95;;;15.00;99.90;;;;;;5074095;28;20423;-74
2022/10/22 08:04:58;;;;;;;1.40;0.40;;;14.90;99.90;;;;;;5074235;28;20525;-74
2022/10/22 08:07:24;;;;;;;0.65;0.50;;;14.90;99.90;;;;;;5073992;28;20118;-75
2022/10/22 08:09:50;;;;;;;2.53;0.50;;;15.00;99.90;;;;;;5074715;28;20106;-74
2022/10/22 08:12:15;;;;;;;3.53;0.47;;;15.00;99.90;;;;;;5092670;28;20164;-74
2022/10/22 08:14:41;;;;;;;2.42;0.52;;;15.00;99.90;;;;;;5073355;28;20028;-74
2022/10/22 08:17:07;;;;;;;1.00;0.65;;;15.00;99.90;;;;;;5074359;28;20126;-74
2022/10/22 08:19:34;;;;;;;1.15;0.50;;;15.10;99.90;;;;;;5073581;28;20024;-74
2022/10/22 08:22:00;;;;;;;1.48;0.88;;;15.10;99.90;;;;;;5074466;28;20453;-74
2022/10/22 08:24:26;;;;;;;1.80;0.68;;;15.10;99.90;;;;;;5091687;28;20027;-74
2022/10/22 08:26:54;;;;;;;2.70;0.70;;;15.10;99.90;;;;;;5074153;28;20044;-74
2022/10/22 08:29:22;;;;;;;0.45;0.40;;;15.10;99.90;;;;;;5074446;28;20020;-74
2022/10/22 08:31:48;;;;;;;1.20;0.50;;;15.10;99.90;;;;;;5073784;28;20035;-73
2022/10/22 08:34:13;;;;;;;1.85;0.47;;;15.10;99.90;;;;;;5074252;28;20028;-73
2022/10/22 08:36:39;;;;;;;1.67;0.63;;;15.20;99.90;;;;;;5073143;28;20035;-74
2022/10/22 08:39:04;;;;;;;0.90;0.38;;;15.20;99.90;;;;;;5092108;28;20055;-74
2022/10/22 08:41:44;;;;;;;3.38;0.40;;;15.20;99.90;;;;;;5091564;28;20077;-74
2022/10/22 08:44:53;;;;;;;0.45;0.30;;;15.20;99.90;;;;;;5074224;28;20093;-74
2022/10/22 08:47:37;;;;;;;1.75;0.40;;;15.30;99.90;;;;;;5074140;28;20389;-74
2022/10/22 08:50:03;;;;;;;0.47;0.30;;;15.30;99.90;;;;;;5074033;28;20024;-73
2022/10/22 08:52:31;;;;;;;0.80;0.20;;;15.40;99.90;;;;;;5073329;28;20039;-73
2022/10/22 08:54:58;;;;;;;3.00;0.28;;;15.40;99.90;;;;;;5092283;28;20020;-74
2022/10/22 08:57:46;;;;;;;0.88;0.30;;;15.50;99.90;;;;;;5073861;28;20546;-75
2022/10/22 09:00:22;;;;;;;0.85;0.30;;;15.50;99.90;;;;;;5093984;28;20043;-74
2022/10/22 09:03:06;;;;;;;0.98;0.22;;;15.50;99.90;;;;;;5093271;28;20072;-75
2022/10/22 09:06:05;;;;;;;2.42;0.50;;;15.60;99.90;;;;;;5087314;28;20030;-75
2022/10/22 09:08:31;;;;;;;1.05;0.40;;;15.60;99.90;;;;;;5085727;28;20055;-74
2022/10/22 09:11:02;;;;;;;0.75;0.30;;;15.60;99.90;;;;;;5093603;28;20023;-74
2022/10/22 09:13:28;;;;;;;3.28;0.60;;;15.60;99.90;;;;;;5093371;28;20047;-74
2022/10/22 09:15:58;;;;;;;0.40;0.30;;;15.70;99.90;;;;;;5093595;28;20027;-74
2022/10/22 09:18:23;;;;;;;2.28;0.93;;;15.70;99.90;;;;;;5112254;28;20077;-73
2022/10/22 09:20:55;;;;;;;3.00;0.38;;;15.80;99.90;;;;;;5092836;28;20140;-76
2022/10/22 09:23:43;;;;;;;1.42;0.25;;;15.80;99.90;;;;;;5086445;28;20468;-76
2022/10/22 09:26:14;;;;;;;1.60;0.38;;;15.80;99.90;;;;;;5090947;28;20088;-76
2022/10/22 09:28:40;;;;;;;5.07;0.52;;;15.90;99.90;;;;;;5086904;28;20124;-76
2022/10/22 09:31:11;;;;;;;0.85;0.30;;;15.90;99.90;;;;;;5072433;28;20059;-77
2022/10/22 09:33:38;;;;;;;1.42;0.28;;;15.90;99.90;;;;;;5094033;28;20032;-76
2022/10/22 09:36:06;;;;;;;1.63;0.40;;;16.00;99.90;;;;;;5095011;28;20043;-76
2022/10/22 09:38:38;;;;;;;1.98;0.60;;;16.00;99.90;;;;;;5077550;28;20028;-76
2022/10/22 09:41:04;;;;;;;2.35;0.90;;;16.10;99.90;;;;;;5089330;28;20020;-75
2022/10/22 09:43:30;;;;;;;1.15;0.50;;;16.10;99.90;;;;;;5086871;28;20017;-76
2022/10/22 09:45:59;;;;;;;2.35;0.80;;;16.20;99.90;;;;;;5088856;28;20107;-75
2022/10/22 09:48:48;;;;;;;1.65;0.40;;;16.20;99.90;;;;;;5094875;28;20039;-76
2022/10/22 09:51:18;;;;;;;1.42;0.57;;;16.20;99.90;;;;;;5093679;28;20479;-76
2022/10/22 09:53:47;;;;;;;1.88;0.50;;;16.30;99.90;;;;;;5093442;28;20180;-75
2022/10/22 09:56:34;;;;;;;2.35;0.52;;;16.40;99.90;;;;;;5092303;28;20020;-75
2022/10/22 09:59:00;;;;;;;1.20;0.50;;;16.50;99.90;;;;;;5082132;28;20024;-75
2022/10/22 10:01:28;;;;;;;0.57;0.40;;;16.50;99.90;;;;;;5091861;28;20024;-76
2022/10/22 10:04:05;;;;;;;1.85;0.50;;;16.50;99.90;;;;;;5093880;28;20021;-74
2022/10/22 10:06:33;;;;;;;2.22;0.50;;;16.60;99.90;;;;;;5078615;28;20042;-75
2022/10/22 10:09:04;;;;;;;1.65;0.45;;;16.60;99.90;;;;;;5093333;28;20498;-76
2022/10/22 10:12:13;;;;;;;2.40;0.60;;;16.70;99.90;;;;;;5080822;28;20361;-75
2022/10/22 10:15:09;;;;;;;1.48;0.43;;;16.70;99.90;;;;;;5078269;28;20020;-76
2022/10/22 10:17:40;;;;;;;2.90;1.33;;;16.80;99.90;;;;;;5079551;28;20028;-76
2022/10/22 10:20:35;;;;;;;6.40;0.90;;;16.80;99.90;;;;;;5091110;28;20048;-78
2022/10/22 10:23:09;;;;;;;2.88;0.50;;;16.90;99.90;;;;;;5086736;28;20082;-78
2022/10/22 10:26:07;;;;;;;2.47;1.00;;;17.00;99.90;;;;;;5093824;28;20024;-78
2022/10/22 10:28:51;;;;;;;2.42;0.75;;;17.10;99.90;;;;;;5077432;28;20043;-79
2022/10/22 10:31:38;;;;;;;2.28;0.50;;;17.10;99.90;;;;;;5074898;28;20061;-78
2022/10/22 10:34:34;;;;;;;0.65;0.50;;;17.20;99.90;;;;;;5073845;28;20031;-78
2022/10/22 10:37:08;;;;;;;2.15;0.45;;;17.20;99.90;;;;;;5091535;28;20031;-79
2022/10/22 10:39:43;;;;;;;2.08;0.80;;;17.30;99.90;;;;;;5079197;28;20029;-79
2022/10/22 10:42:37;;;;;;;2.80;0.50;;;17.40;99.90;;;;;;5077773;28;20020;-78
2022/10/22 10:45:24;;;;;;;1.60;0.63;;;17.30;99.90;;;;;;5060589;28;20024;-80
2022/10/22 10:48:09;;;;;;;2.55;0.70;;;17.40;99.90;;;;;;5072429;28;20024;-77
2022/10/22 10:50:53;;;;;;;2.40;0.70;;;17.40;99.90;;;;;;5069935;28;20035;-77
2022/10/22 10:53:52;;;;;;;1.80;0.50;;;17.40;99.90;;;;;;5075555;28;20373;-76
2022/10/22 10:56:32;;;;;;;1.85;0.70;;;17.50;99.90;;;;;;5066942;28;20031;-76
2022/10/22 10:59:25;;;;;;;1.65;0.60;;;17.70;99.90;;;;;;5076325;28;20028;-77
2022/10/22 11:02:01;;;;;;;1.40;0.30;;;17.70;99.90;;;;;;5062967;28;20030;-76
2022/10/22 11:04:48;;;;;;;0.93;0.60;;;17.80;99.90;;;;;;5066635;28;20061;-78
2022/10/22 11:07:18;;;;;;;4.47;1.48;;;17.90;99.90;;;;;;5094173;28;20027;-77
2022/10/22 11:09:56;;;;;;;6.13;1.13;;;18.00;99.90;;;;;;5070042;28;20056;-77
2022/10/22 11:12:30;;;;;;;2.42;0.65;;;18.00;99.90;;;;;;5067369;28;20074;-77
2022/10/22 11:15:19;;;;;;;3.60;1.80;;;18.10;99.90;;;;;;5076116;28;20024;-76
2022/10/22 11:17:47;;;;;;;4.28;1.52;;;18.40;99.90;;;;;;5079747;28;20135;-76
2022/10/22 11:20:18;;;;;;;7.53;2.33;;;18.60;99.90;;;;;;5075984;28;20024;-76
2022/10/22 11:23:00;;;;;;;5.57;0.98;;;18.70;99.90;;;;;;5075284;28;20054;-76
2022/10/22 11:25:40;;;;;;;1.40;0.65;;;18.80;99.90;;;;;;5091133;28;20085;-81
2022/10/22 11:28:16;;;;;;;4.50;0.70;;;18.80;99.90;;;;;;5076594;28;20377;-77
2022/10/22 11:30:44;;;;;;;2.80;0.60;;;18.70;99.90;;;;;;5085843;28;20056;-77
2022/10/22 11:33:14;;;;;;;3.72;0.75;;;18.60;99.90;;;;;;5091644;28;20034;-77
2022/10/22 11:35:42;;;;;;;0.65;0.45;;;18.70;99.90;;;;;;5091944;28;20063;-78
2022/10/22 11:38:13;;;;;;;4.88;0.73;;;18.60;99.90;;;;;;5092337;28;20146;-78
2022/10/22 11:40:47;;;;;;;0.95;0.47;;;18.60;99.90;;;;;;5081596;28;20119;-78
2022/10/22 11:43:34;;;;;;;1.30;0.38;;;18.60;99.90;;;;;;5074444;28;20031;-78
2022/10/22 11:46:20;;;;;;;2.33;0.40;;;18.80;99.90;;;;;;5092797;28;20044;-77
2022/10/22 11:49:12;;;;;;;1.30;0.50;;;18.90;99.90;;;;;;5076730;28;20372;-77
2022/10/22 11:51:40;;;;;;;2.92;0.43;;;19.00;99.90;;;;;;5074517;28;20020;-77
2022/10/22 11:54:41;;;;;;;4.18;0.60;;;19.20;99.90;;;;;;5081530;28;20016;-77
2022/10/22 11:57:26;;;;;;;3.33;0.50;;;19.30;99.90;;;;;;5093322;28;20452;-82
2022/10/22 11:59:57;;;;;;;2.38;0.70;;;19.50;99.90;;;;;;5080050;28;20015;-84
2022/10/22 12:02:29;;;;;;;;;;;19.60;99.90;;;;;;5081994;28;20017;-84
2022/10/22 12:05:21;;;;;;;3.03;0.80;;;19.80;99.90;;;;;;5089912;28;20297;-82
2022/10/22 12:07:56;;;;;;;4.28;0.40;;;20.00;99.90;;;;;;5092399;28;20377;-81
2022/10/22 12:10:25;;;;;;;1.45;0.40;;;20.20;99.90;;;;;;5084106;28;20115;-81
2022/10/22 12:12:56;;;;;;;2.13;0.60;;;20.40;99.90;;;;;;5092449;28;20027;-81
2022/10/22 12:15:26;;;;;;;4.55;0.93;;;20.50;99.90;;;;;;5087281;28;20407;-81
2022/10/22 12:18:00;;;;;;;2.25;1.15;;;20.60;99.90;;;;;;5079830;28;20103;-82
2022/10/22 12:20:27;;;;;;;3.60;0.32;;;20.80;99.90;;;;;;5078880;28;20385;-83
2022/10/22 12:22:56;;;;;;;1.35;0.50;;;20.90;99.90;;;;;;5088131;28;20024;-81
2022/10/22 12:25:24;;;;;;;1.15;0.60;;;21.00;99.90;;;;;;5080313;28;20024;-82
2022/10/22 12:27:56;;;;;;;2.90;0.63;;;21.20;99.90;;;;;;5090707;28;20040;-82
2022/10/22 12:30:35;;;;;;;5.10;0.80;;;21.40;99.90;;;;;;5083380;28;20020;-82
2022/10/22 12:33:04;;;;;;;1.38;0.50;;;21.90;99.90;;;;;;5083683;28;20104;-82
2022/10/22 12:35:42;;;;;;;4.15;0.52;;;22.40;99.90;;;;;;5083973;28;20115;-82
2022/10/22 12:38:15;;;;;;;4.95;1.65;;;23.00;99.90;;;;;;5091302;28;20039;-83
2022/10/22 12:40:41;;;;;;;3.60;1.10;;;23.50;99.90;;;;;;5091214;28;20124;-82
2022/10/22 12:43:15;;;;;;;1.52;0.80;;;23.90;99.90;;;;;;5084367;28;20048;-83
2022/10/22 12:45:44;;;;;;;4.22;0.80;;;24.40;98.90;;;;;;5074392;28;20020;-82
2022/10/22 12:48:22;;;;;;;1.40;0.40;;;24.80;97.20;;;;;;5092993;28;20028;-78
2022/10/22 12:50:51;;;;;;;2.35;0.63;;;25.20;95.70;;;;;;5079793;28;20028;-79
2022/10/22 12:53:28;;;;;;;2.95;0.50;;;25.50;94.30;;;;;;5091633;28;20337;-78
2022/10/22 12:55:56;;;;;;;0.75;0.50;;;26.20;93.50;;;;;;5087878;28;20073;-75
2022/10/22 12:58:27;;;;;;;2.70;0.98;;;26.50;91.70;;;;;;5081411;28;20020;-75
2022/10/22 13:01:00;;;;;;;2.08;0.57;;;26.80;90.30;;;;;;5090423;28;20056;-75
2022/10/22 13:03:33;;;;;;;3.42;0.85;;;27.20;88.10;;;;;;5093962;28;20468;-78
2022/10/22 13:06:24;;;;;;;1.58;0.50;;;27.70;84.80;;;;;;5069974;28;20082;-75
2022/10/22 13:08:59;;;;;;;2.03;0.57;;;27.80;81.30;;;;;;5088333;28;20074;-75